Alexander, IL

11:07 AM CST on February 11, 2016 (GMT -0600)
APRSWXNET | | Change Station
CLOSE
Current Station
Personal Weather Station
Location: Alexander, IL
Elevation: 675 ft
Nearby Weather Stations

Elev 675 ft 39.69 °N, 90.02 °W | Updated 30 minutes ago

Clear
Clear
17 °F
Feels Like 17 °F
N
3
Wind Variable Wind from East
Gusts 0.0 mph

Today
High -- | Low -- °F
--% Chance of Precip.
Yesterday
High -- | Low -- °F
Precip. -- in
Pressure 30.38 in
Visibility 10.0 miles
Clouds Clear
Windchill 17 °F
Dew Point 8 °F
Humidity 67%
Rainfall in
Snow Depth Not available.
6:58 AM 5:31 PM
Waxing Crescent, 13% visible
METAR KIJX 111655Z AUTO 00000KT 10SM CLR M07/M14 A3038 RMK AO2 T10661142
Pressure 30.38 in
Visibility 10.0 miles
Clouds Clear
Windchill 17 °F
Dew Point 8 °F
Humidity 67%
Rainfall in
Snow Depth Not available.
6:58 AM 5:31 PM
Waxing Crescent, 13% visible
METAR KIJX 111655Z AUTO 00000KT 10SM CLR M07/M14 A3038 RMK AO2 T10661142

10-Day Weather Forecast

Almanac

Astronomy

Feb. 11, 2016 Rise Set
Actual Time
Civil Twilight
Nautical Twilight
Astronomical Twilight
Moon
Length of Visible Light
Length of Day
Tomorrow will be .
, % of the Moon is Illuminated

Today's Extremes

State Highs State Lows

Community

WunderPhotos

Upload Photos

1,892,102 photos uploaded!

WunderBlog® & News

Nearby

Air Quality

  Air Quality AQ Index Pollutant
Not available.

Snow Depth

Station Depth Elevation

Earthquake Activity

City Distance Mag. Time & Date
Minimum magnitude displayed is 2.5.

Coastal Water Temperatures

Place Temperature

Stations

Nearby Weather Stations

Station Location Temp. Windchill Dew Point Humidity Wind Precip. Elev Updated Type
                   

Watches & Warnings

There are currently no watches in effect.